Tipton Airport
KFME : now visible

Airfield :











YOU CAN JOIN US ON...

 
LOGIN :

Register | Disclaimer

   EN    FR    IT 

 









Legend :    VFR   Marginal VFR   IFR   Intensive IFR   Very Intensive IFR
Visi :
Ceiling :
>= 8 km
>= 3000ft
5 to 8 km
1000 to 3000 ft
1500m to 5 km
500 to 1000 ft
800 to 1500m
200 to 500 ft
< 800m
< 200 ft
Symbols :   Thunderstorms  Fog  Heavy snow  Heavy precipitations  Wind > 20 kt






- Airport Elevation : 150 ft


KFME - Tipton

CURRENT METAR :
  • 242327Z AUTO 08010G14KT 10SM SCT060 BKN080 08/05 A3019 RMK AO1

EXPIRED METARs :
  • 242306Z AUTO 08009KT 10SM BKN060 BKN070 09/05 A3019 RMK AO1
  • 242248Z AUTO 09010KT 10SM BKN060 OVC070 09/05 A3019 RMK AO1
  • 242227Z AUTO 09010KT 10SM SCT060 OVC070 10/05 A3019 RMK AO1
  • 242206Z AUTO 08008KT 10SM BKN070 09/05 A3019 RMK AO1
  • 242148Z AUTO 08009KT 10SM SCT060 BKN065 09/05 A3018 RMK AO1
  • 242127Z AUTO 07005KT 10SM BKN060 10/05 A3018 RMK AO1
  • 242106Z AUTO 08004KT 10SM OVC060 09/05 A3020 RMK AO1
  • 242048Z AUTO 08007KT 10SM OVC060 09/05 A3020 RMK AO1

TAF N/A



MET'MAP, your aeronautical weather chart ! - Copyright ORBIFLY December 2007 - Disclaimer

ORBIFLY MET'MAP TEAM :

Programming & Development : Alexandra Zaïnal
Concept & original design : Baudouin d'Aumeries
Assistance for programming : Marc-Olivier Méhu
Technical & hardware support : Manuel Goepfert

Contact : metmap@orbifly.com




SOURCES & CREDITS :

   NOAA       Earth
Advisory